sensor_id;sensor_type;location;lat;lon;timestamp;temperature;humidity
16929;DHT22;8581;47.334;11.190;2023-03-12T00:01:08;0.10;99.90
16929;DHT22;8581;47.334;11.190;2023-03-12T00:03:32;0.10;99.90
16929;DHT22;8581;47.334;11.190;2023-03-12T00:06:05;0.20;99.90
16929;DHT22;8581;47.334;11.190;2023-03-12T00:08:36;0.30;99.90
16929;DHT22;8581;47.334;11.190;2023-03-12T00:11:09;0.30;99.90
16929;DHT22;8581;47.334;11.190;2023-03-12T00:13:39;0.50;99.90
16929;DHT22;8581;47.334;11.190;2023-03-12T00:16:12;0.60;99.90
16929;DHT22;8581;47.334;11.190;2023-03-12T00:18:43;0.50;99.90
16929;DHT22;8581;47.334;11.190;2023-03-12T00:21:14;0.60;99.90
16929;DHT22;8581;47.334;11.190;2023-03-12T00:23:47;0.60;99.90
16929;DHT22;8581;47.334;11.190;2023-03-12T00:26:18;0.30;99.90
16929;DHT22;8581;47.334;11.190;2023-03-12T00:28:51;0.20;99.90
16929;DHT22;8581;47.334;11.190;2023-03-12T00:31:23;0.40;99.90
16929;DHT22;8581;47.334;11.190;2023-03-12T00:33:54;0.50;99.90
16929;DHT22;8581;47.334;11.190;2023-03-12T00:36:26;0.40;99.90
16929;DHT22;8581;47.334;11.190;2023-03-12T00:38:57;0.40;99.90
16929;DHT22;8581;47.334;11.190;2023-03-12T00:41:29;0.40;99.90
16929;DHT22;8581;47.334;11.190;2023-03-12T00:44:01;0.30;99.90
16929;DHT22;8581;47.334;11.190;2023-03-12T00:46:32;0.40;99.90
16929;DHT22;8581;47.334;11.190;2023-03-12T00:49:04;0.20;99.90
16929;DHT22;8581;47.334;11.190;2023-03-12T00:51:36;0.30;99.90
16929;DHT22;8581;47.334;11.190;2023-03-12T00:54:07;0.40;99.90
16929;DHT22;8581;47.334;11.190;2023-03-12T00:56:39;0.70;99.90
16929;DHT22;8581;47.334;11.190;2023-03-12T00:59:11;0.60;99.90
16929;DHT22;8581;47.334;11.190;2023-03-12T01:01:42;0.50;99.90
16929;DHT22;8581;47.334;11.190;2023-03-12T01:04:14;0.50;99.90
16929;DHT22;8581;47.334;11.190;2023-03-12T01:06:45;0.50;99.90
16929;DHT22;8581;47.334;11.190;2023-03-12T01:09:17;0.40;99.90
16929;DHT22;8581;47.334;11.190;2023-03-12T01:11:48;0.50;99.90
16929;DHT22;8581;47.334;11.190;2023-03-12T01:14:20;0.30;99.90
16929;DHT22;8581;47.334;11.190;2023-03-12T01:16:52;0.20;99.90
16929;DHT22;8581;47.334;11.190;2023-03-12T01:19:23;0.20;99.90
16929;DHT22;8581;47.334;11.190;2023-03-12T01:21:55;0.20;99.90
16929;DHT22;8581;47.334;11.190;2023-03-12T01:24:26;0.30;99.90
16929;DHT22;8581;47.334;11.190;2023-03-12T01:26:58;0.30;99.90
16929;DHT22;8581;47.334;11.190;2023-03-12T01:29:30;0.30;99.90
16929;DHT22;8581;47.334;11.190;2023-03-12T01:32:01;0.30;99.90
16929;DHT22;8581;47.334;11.190;2023-03-12T01:34:33;0.30;99.90
16929;DHT22;8581;47.334;11.190;2023-03-12T01:37:05;0.20;99.90
16929;DHT22;8581;47.334;11.190;2023-03-12T01:39:36;0.10;99.90
16929;DHT22;8581;47.334;11.190;2023-03-12T01:42:08;0.10;99.90
16929;DHT22;8581;47.334;11.190;2023-03-12T01:44:52;0.30;99.90
16929;DHT22;8581;47.334;11.190;2023-03-12T01:47:23;0.20;99.90
16929;DHT22;8581;47.334;11.190;2023-03-12T01:49:54;0.20;99.90
16929;DHT22;8581;47.334;11.190;2023-03-12T01:52:31;0.40;99.90
16929;DHT22;8581;47.334;11.190;2023-03-12T01:55:12;0.30;99.90
16929;DHT22;8581;47.334;11.190;2023-03-12T01:57:49;0.20;99.90
16929;DHT22;8581;47.334;11.190;2023-03-12T02:00:21;0.40;99.90
16929;DHT22;8581;47.334;11.190;2023-03-12T02:02:51;0.30;99.90
16929;DHT22;8581;47.334;11.190;2023-03-12T02:05:29;-0.30;99.90
16929;DHT22;8581;47.334;11.190;2023-03-12T02:07:59;0.20;99.90
16929;DHT22;8581;47.334;11.190;2023-03-12T02:10:31;0.00;99.90
16929;DHT22;8581;47.334;11.190;2023-03-12T02:13:02;0.00;99.90
16929;DHT22;8581;47.334;11.190;2023-03-12T02:15:34;0.40;99.90
16929;DHT22;8581;47.334;11.190;2023-03-12T02:18:06;0.40;99.90
16929;DHT22;8581;47.334;11.190;2023-03-12T02:20:48;0.20;99.90
16929;DHT22;8581;47.334;11.190;2023-03-12T02:23:34;0.70;99.90
16929;DHT22;8581;47.334;11.190;2023-03-12T02:26:04;0.40;99.90
16929;DHT22;8581;47.334;11.190;2023-03-12T02:28:36;0.50;99.90
16929;DHT22;8581;47.334;11.190;2023-03-12T02:31:07;0.50;99.90
16929;DHT22;8581;47.334;11.190;2023-03-12T02:33:39;0.50;99.90
16929;DHT22;8581;47.334;11.190;2023-03-12T02:36:10;0.40;99.90
16929;DHT22;8581;47.334;11.190;2023-03-12T02:38:47;0.40;99.90
16929;DHT22;8581;47.334;11.190;2023-03-12T02:41:24;0.20;99.90
16929;DHT22;8581;47.334;11.190;2023-03-12T02:44:02;0.20;99.90
16929;DHT22;8581;47.334;11.190;2023-03-12T02:46:34;0.50;99.90
16929;DHT22;8581;47.334;11.190;2023-03-12T02:49:03;0.40;99.90
16929;DHT22;8581;47.334;11.190;2023-03-12T02:51:36;0.30;99.90
16929;DHT22;8581;47.334;11.190;2023-03-12T02:54:07;0.30;99.90
16929;DHT22;8581;47.334;11.190;2023-03-12T02:56:39;0.40;99.90
16929;DHT22;8581;47.334;11.190;2023-03-12T02:59:11;0.30;99.90
16929;DHT22;8581;47.334;11.190;2023-03-12T03:01:42;0.30;99.90
16929;DHT22;8581;47.334;11.190;2023-03-12T03:04:14;0.40;99.90
16929;DHT22;8581;47.334;11.190;2023-03-12T03:06:45;0.40;99.90
16929;DHT22;8581;47.334;11.190;2023-03-12T03:09:17;0.30;99.90
16929;DHT22;8581;47.334;11.190;2023-03-12T03:11:49;0.10;99.90
16929;DHT22;8581;47.334;11.190;2023-03-12T03:14:20;0.20;99.90
16929;DHT22;8581;47.334;11.190;2023-03-12T03:16:52;0.20;99.90
16929;DHT22;8581;47.334;11.190;2023-03-12T03:19:23;0.30;99.90
16929;DHT22;8581;47.334;11.190;2023-03-12T03:21:55;0.20;99.90
16929;DHT22;8581;47.334;11.190;2023-03-12T03:24:26;0.10;99.90
16929;DHT22;8581;47.334;11.190;2023-03-12T03:26:58;0.20;99.90
16929;DHT22;8581;47.334;11.190;2023-03-12T03:29:30;0.10;99.90
16929;DHT22;8581;47.334;11.190;2023-03-12T03:32:01;0.10;99.90
16929;DHT22;8581;47.334;11.190;2023-03-12T03:34:33;0.10;99.90
16929;DHT22;8581;47.334;11.190;2023-03-12T03:37:04;-0.10;99.90
16929;DHT22;8581;47.334;11.190;2023-03-12T03:39:36;0.00;99.90
16929;DHT22;8581;47.334;11.190;2023-03-12T03:42:08;-0.10;99.90
16929;DHT22;8581;47.334;11.190;2023-03-12T03:44:39;0.00;99.90
16929;DHT22;8581;47.334;11.190;2023-03-12T03:47:11;0.10;99.90
16929;DHT22;8581;47.334;11.190;2023-03-12T03:49:42;0.10;99.90
16929;DHT22;8581;47.334;11.190;2023-03-12T03:52:15;0.20;99.90
16929;DHT22;8581;47.334;11.190;2023-03-12T03:54:46;0.30;99.90
16929;DHT22;8581;47.334;11.190;2023-03-12T03:57:18;0.40;99.90
16929;DHT22;8581;47.334;11.190;2023-03-12T03:59:50;0.40;99.90
16929;DHT22;8581;47.334;11.190;2023-03-12T04:02:21;0.20;99.90
16929;DHT22;8581;47.334;11.190;2023-03-12T04:04:55;0.20;99.90
16929;DHT22;8581;47.334;11.190;2023-03-12T04:07:25;0.40;99.90
16929;DHT22;8581;47.334;11.190;2023-03-12T04:09:56;0.40;99.90
16929;DHT22;8581;47.334;11.190;2023-03-12T04:12:28;0.30;99.90
16929;DHT22;8581;47.334;11.190;2023-03-12T04:14:59;0.20;99.90
16929;DHT22;8581;47.334;11.190;2023-03-12T04:17:31;0.30;99.90
16929;DHT22;8581;47.334;11.190;2023-03-12T04:20:03;0.30;99.90
16929;DHT22;8581;47.334;11.190;2023-03-12T04:22:35;0.20;99.90
16929;DHT22;8581;47.334;11.190;2023-03-12T04:25:07;0.40;99.90
16929;DHT22;8581;47.334;11.190;2023-03-12T04:27:39;0.30;99.90
16929;DHT22;8581;47.334;11.190;2023-03-12T04:30:11;0.30;99.90
16929;DHT22;8581;47.334;11.190;2023-03-12T04:32:43;0.40;99.90
16929;DHT22;8581;47.334;11.190;2023-03-12T04:35:14;0.30;99.90
16929;DHT22;8581;47.334;11.190;2023-03-12T04:37:46;0.30;99.90
16929;DHT22;8581;47.334;11.190;2023-03-12T04:40:18;0.10;99.90
16929;DHT22;8581;47.334;11.190;2023-03-12T04:42:49;0.10;99.90
16929;DHT22;8581;47.334;11.190;2023-03-12T04:45:21;0.40;99.90
16929;DHT22;8581;47.334;11.190;2023-03-12T04:47:52;0.30;99.90
16929;DHT22;8581;47.334;11.190;2023-03-12T04:50:24;0.20;99.90
16929;DHT22;8581;47.334;11.190;2023-03-12T04:52:56;0.50;99.90
16929;DHT22;8581;47.334;11.190;2023-03-12T04:55:27;0.50;99.90
16929;DHT22;8581;47.334;11.190;2023-03-12T04:57:59;0.30;99.90
16929;DHT22;8581;47.334;11.190;2023-03-12T05:00:30;0.20;99.90
16929;DHT22;8581;47.334;11.190;2023-03-12T05:03:02;0.20;99.90
16929;DHT22;8581;47.334;11.190;2023-03-12T05:05:34;0.40;99.90
16929;DHT22;8581;47.334;11.190;2023-03-12T05:08:05;0.30;99.90
16929;DHT22;8581;47.334;11.190;2023-03-12T05:10:37;0.20;99.90
16929;DHT22;8581;47.334;11.190;2023-03-12T05:13:13;0.10;99.90
16929;DHT22;8581;47.334;11.190;2023-03-12T05:15:44;0.30;99.90
16929;DHT22;8581;47.334;11.190;2023-03-12T05:18:16;0.40;99.90
16929;DHT22;8581;47.334;11.190;2023-03-12T05:20:56;0.30;99.90
16929;DHT22;8581;47.334;11.190;2023-03-12T05:23:19;0.40;99.90
16929;DHT22;8581;47.334;11.190;2023-03-12T05:25:50;0.30;99.90
16929;DHT22;8581;47.334;11.190;2023-03-12T05:28:22;0.40;99.90
16929;DHT22;8581;47.334;11.190;2023-03-12T05:30:54;0.30;99.90
16929;DHT22;8581;47.334;11.190;2023-03-12T05:33:26;0.10;99.90
16929;DHT22;8581;47.334;11.190;2023-03-12T05:35:57;0.20;99.90
16929;DHT22;8581;47.334;11.190;2023-03-12T05:38:28;0.30;99.90
16929;DHT22;8581;47.334;11.190;2023-03-12T05:41:00;0.20;99.90
16929;DHT22;8581;47.334;11.190;2023-03-12T05:43:32;0.20;99.90
16929;DHT22;8581;47.334;11.190;2023-03-12T05:46:04;0.20;99.90
16929;DHT22;8581;47.334;11.190;2023-03-12T05:48:35;0.20;99.90
16929;DHT22;8581;47.334;11.190;2023-03-12T05:51:07;0.00;99.90
16929;DHT22;8581;47.334;11.190;2023-03-12T05:53:38;-0.10;99.90
16929;DHT22;8581;47.334;11.190;2023-03-12T05:56:12;-0.10;99.90
16929;DHT22;8581;47.334;11.190;2023-03-12T05:58:42;-0.10;99.90
16929;DHT22;8581;47.334;11.190;2023-03-12T06:01:16;0.00;99.90
16929;DHT22;8581;47.334;11.190;2023-03-12T06:03:46;0.00;99.90
16929;DHT22;8581;47.334;11.190;2023-03-12T06:06:18;0.10;99.90
16929;DHT22;8581;47.334;11.190;2023-03-12T06:08:50;0.10;99.90
16929;DHT22;8581;47.334;11.190;2023-03-12T06:11:21;0.20;99.90
16929;DHT22;8581;47.334;11.190;2023-03-12T06:13:53;0.20;99.90
16929;DHT22;8581;47.334;11.190;2023-03-12T06:16:25;0.10;99.90
16929;DHT22;8581;47.334;11.190;2023-03-12T06:18:57;0.20;99.90
16929;DHT22;8581;47.334;11.190;2023-03-12T06:21:29;0.40;99.90
16929;DHT22;8581;47.334;11.190;2023-03-12T06:23:59;0.20;99.90
16929;DHT22;8581;47.334;11.190;2023-03-12T06:26:31;0.40;99.90
16929;DHT22;8581;47.334;11.190;2023-03-12T06:29:02;0.30;99.90
16929;DHT22;8581;47.334;11.190;2023-03-12T06:31:34;0.30;99.90
16929;DHT22;8581;47.334;11.190;2023-03-12T06:34:06;0.50;99.90
16929;DHT22;8581;47.334;11.190;2023-03-12T06:36:37;0.30;99.90
16929;DHT22;8581;47.334;11.190;2023-03-12T06:39:09;0.40;99.90
16929;DHT22;8581;47.334;11.190;2023-03-12T06:41:40;0.50;99.90
16929;DHT22;8581;47.334;11.190;2023-03-12T06:44:12;0.70;99.90
16929;DHT22;8581;47.334;11.190;2023-03-12T06:46:44;0.80;99.90
16929;DHT22;8581;47.334;11.190;2023-03-12T06:49:15;1.00;99.90
16929;DHT22;8581;47.334;11.190;2023-03-12T06:51:47;0.80;99.90
16929;DHT22;8581;47.334;11.190;2023-03-12T06:54:18;0.70;99.90
16929;DHT22;8581;47.334;11.190;2023-03-12T06:56:50;0.50;99.90
16929;DHT22;8581;47.334;11.190;2023-03-12T06:59:22;0.50;99.90
16929;DHT22;8581;47.334;11.190;2023-03-12T07:01:53;0.70;99.90
16929;DHT22;8581;47.334;11.190;2023-03-12T07:04:25;0.60;99.90
16929;DHT22;8581;47.334;11.190;2023-03-12T07:06:56;0.70;99.90
16929;DHT22;8581;47.334;11.190;2023-03-12T07:09:28;0.70;99.90
16929;DHT22;8581;47.334;11.190;2023-03-12T07:11:59;0.70;99.90
16929;DHT22;8581;47.334;11.190;2023-03-12T07:14:31;0.80;99.90
16929;DHT22;8581;47.334;11.190;2023-03-12T07:17:03;0.90;99.90
16929;DHT22;8581;47.334;11.190;2023-03-12T07:19:34;1.00;99.90
16929;DHT22;8581;47.334;11.190;2023-03-12T07:22:06;0.90;99.90
16929;DHT22;8581;47.334;11.190;2023-03-12T07:24:38;1.00;99.90
16929;DHT22;8581;47.334;11.190;2023-03-12T07:27:09;1.00;99.90
16929;DHT22;8581;47.334;11.190;2023-03-12T07:29:41;1.10;99.90
16929;DHT22;8581;47.334;11.190;2023-03-12T07:32:12;0.80;99.90
16929;DHT22;8581;47.334;11.190;2023-03-12T07:34:44;0.80;99.90
16929;DHT22;8581;47.334;11.190;2023-03-12T07:37:16;1.00;99.90
16929;DHT22;8581;47.334;11.190;2023-03-12T07:39:47;0.90;99.90
16929;DHT22;8581;47.334;11.190;2023-03-12T07:42:19;1.10;99.90
16929;DHT22;8581;47.334;11.190;2023-03-12T07:44:50;1.40;99.90
16929;DHT22;8581;47.334;11.190;2023-03-12T07:47:22;2.10;99.90
16929;DHT22;8581;47.334;11.190;2023-03-12T07:49:54;2.20;99.90
16929;DHT22;8581;47.334;11.190;2023-03-12T07:52:25;2.00;99.90
16929;DHT22;8581;47.334;11.190;2023-03-12T07:54:57;2.00;99.90
16929;DHT22;8581;47.334;11.190;2023-03-12T07:57:29;1.90;99.90
16929;DHT22;8581;47.334;11.190;2023-03-12T08:00:00;1.80;99.90
16929;DHT22;8581;47.334;11.190;2023-03-12T08:02:32;1.90;99.90
16929;DHT22;8581;47.334;11.190;2023-03-12T08:05:04;1.80;99.90
16929;DHT22;8581;47.334;11.190;2023-03-12T08:07:36;2.00;99.90
16929;DHT22;8581;47.334;11.190;2023-03-12T08:10:08;2.20;99.90
16929;DHT22;8581;47.334;11.190;2023-03-12T08:12:41;2.30;99.90
16929;DHT22;8581;47.334;11.190;2023-03-12T08:15:12;2.40;99.90
16929;DHT22;8581;47.334;11.190;2023-03-12T08:17:44;2.50;99.90
16929;DHT22;8581;47.334;11.190;2023-03-12T08:20:15;2.10;99.90
16929;DHT22;8581;47.334;11.190;2023-03-12T08:22:47;1.90;99.90
16929;DHT22;8581;47.334;11.190;2023-03-12T08:25:19;1.70;99.90
16929;DHT22;8581;47.334;11.190;2023-03-12T08:27:50;2.00;99.90
16929;DHT22;8581;47.334;11.190;2023-03-12T08:30:22;1.90;99.90
16929;DHT22;8581;47.334;11.190;2023-03-12T08:32:53;2.10;99.90
16929;DHT22;8581;47.334;11.190;2023-03-12T08:35:25;2.40;99.90
16929;DHT22;8581;47.334;11.190;2023-03-12T08:37:57;2.80;99.90
16929;DHT22;8581;47.334;11.190;2023-03-12T08:40:28;3.30;99.90
16929;DHT22;8581;47.334;11.190;2023-03-12T08:43:00;4.00;99.90
16929;DHT22;8581;47.334;11.190;2023-03-12T08:45:31;4.20;99.90
16929;DHT22;8581;47.334;11.190;2023-03-12T08:48:04;5.00;99.90
16929;DHT22;8581;47.334;11.190;2023-03-12T08:50:35;5.40;99.90
16929;DHT22;8581;47.334;11.190;2023-03-12T08:53:06;5.40;99.90
16929;DHT22;8581;47.334;11.190;2023-03-12T08:55:38;5.40;99.90
16929;DHT22;8581;47.334;11.190;2023-03-12T08:58:09;5.20;99.90
16929;DHT22;8581;47.334;11.190;2023-03-12T09:00:41;4.70;99.90
16929;DHT22;8581;47.334;11.190;2023-03-12T09:03:13;4.30;99.90
16929;DHT22;8581;47.334;11.190;2023-03-12T09:05:44;4.50;99.90
16929;DHT22;8581;47.334;11.190;2023-03-12T09:08:16;4.70;99.90
16929;DHT22;8581;47.334;11.190;2023-03-12T09:10:48;4.90;99.90
16929;DHT22;8581;47.334;11.190;2023-03-12T09:13:19;4.80;99.90
16929;DHT22;8581;47.334;11.190;2023-03-12T09:15:51;4.80;99.90
16929;DHT22;8581;47.334;11.190;2023-03-12T09:18:22;5.30;99.90
16929;DHT22;8581;47.334;11.190;2023-03-12T09:20:54;4.90;99.90
16929;DHT22;8581;47.334;11.190;2023-03-12T09:23:26;5.10;99.90
16929;DHT22;8581;47.334;11.190;2023-03-12T09:25:57;5.00;99.90
16929;DHT22;8581;47.334;11.190;2023-03-12T09:28:29;4.90;99.90
16929;DHT22;8581;47.334;11.190;2023-03-12T09:31:01;4.30;99.90
16929;DHT22;8581;47.334;11.190;2023-03-12T09:33:32;4.70;99.90
16929;DHT22;8581;47.334;11.190;2023-03-12T09:36:04;5.00;99.90
16929;DHT22;8581;47.334;11.190;2023-03-12T09:38:36;4.40;99.90
16929;DHT22;8581;47.334;11.190;2023-03-12T09:41:16;4.50;99.90
16929;DHT22;8581;47.334;11.190;2023-03-12T09:44:04;4.50;99.90
16929;DHT22;8581;47.334;11.190;2023-03-12T09:46:49;4.40;99.90
16929;DHT22;8581;47.334;11.190;2023-03-12T09:49:25;4.50;99.90
16929;DHT22;8581;47.334;11.190;2023-03-12T09:51:54;4.70;99.90
16929;DHT22;8581;47.334;11.190;2023-03-12T09:54:31;4.30;99.90
16929;DHT22;8581;47.334;11.190;2023-03-12T09:57:02;4.40;99.90
16929;DHT22;8581;47.334;11.190;2023-03-12T09:59:31;5.30;99.90
16929;DHT22;8581;47.334;11.190;2023-03-12T10:02:04;5.90;99.90
16929;DHT22;8581;47.334;11.190;2023-03-12T10:04:42;6.10;99.90
16929;DHT22;8581;47.334;11.190;2023-03-12T10:07:29;5.60;99.90
16929;DHT22;8581;47.334;11.190;2023-03-12T10:10:06;5.10;99.90
16929;DHT22;8581;47.334;11.190;2023-03-12T10:13:49;5.20;99.90
16929;DHT22;8581;47.334;11.190;2023-03-12T10:18:29;6.00;99.90
16929;DHT22;8581;47.334;11.190;2023-03-12T10:21:09;6.40;99.90
16929;DHT22;8581;47.334;11.190;2023-03-12T10:26:37;6.40;99.90
16929;DHT22;8581;47.334;11.190;2023-03-12T10:29:15;6.10;99.90
16929;DHT22;8581;47.334;11.190;2023-03-12T10:31:52;6.20;99.90
16929;DHT22;8581;47.334;11.190;2023-03-12T10:37:02;6.00;99.90
16929;DHT22;8581;47.334;11.190;2023-03-12T10:39:37;6.60;99.90
16929;DHT22;8581;47.334;11.190;2023-03-12T10:42:13;7.50;99.90
16929;DHT22;8581;47.334;11.190;2023-03-12T10:44:46;7.90;99.90
16929;DHT22;8581;47.334;11.190;2023-03-12T10:47:33;8.30;99.90
16929;DHT22;8581;47.334;11.190;2023-03-12T10:50:11;8.50;99.90
16929;DHT22;8581;47.334;11.190;2023-03-12T10:52:41;8.40;99.90
16929;DHT22;8581;47.334;11.190;2023-03-12T10:55:23;8.40;99.90
16929;DHT22;8581;47.334;11.190;2023-03-12T10:57:53;8.70;99.90
16929;DHT22;8581;47.334;11.190;2023-03-12T11:00:26;8.20;99.90
16929;DHT22;8581;47.334;11.190;2023-03-12T11:03:01;8.20;99.90
16929;DHT22;8581;47.334;11.190;2023-03-12T11:05:36;8.10;99.90
16929;DHT22;8581;47.334;11.190;2023-03-12T11:08:14;8.10;99.90
16929;DHT22;8581;47.334;11.190;2023-03-12T11:10:41;8.10;99.90
16929;DHT22;8581;47.334;11.190;2023-03-12T11:13:21;7.80;99.90
16929;DHT22;8581;47.334;11.190;2023-03-12T11:15:51;7.40;99.90
16929;DHT22;8581;47.334;11.190;2023-03-12T11:18:26;7.80;99.90
16929;DHT22;8581;47.334;11.190;2023-03-12T11:21:10;7.40;99.90
16929;DHT22;8581;47.334;11.190;2023-03-12T11:23:29;7.00;99.90
16929;DHT22;8581;47.334;11.190;2023-03-12T11:26:01;6.70;99.90
16929;DHT22;8581;47.334;11.190;2023-03-12T11:28:37;6.60;99.90
16929;DHT22;8581;47.334;11.190;2023-03-12T11:31:08;7.20;99.90
16929;DHT22;8581;47.334;11.190;2023-03-12T11:33:39;7.60;99.90
16929;DHT22;8581;47.334;11.190;2023-03-12T11:37:05;8.10;99.90
16929;DHT22;8581;47.334;11.190;2023-03-12T11:39:24;8.80;99.90
16929;DHT22;8581;47.334;11.190;2023-03-12T11:47:58;9.70;99.90
16929;DHT22;8581;47.334;11.190;2023-03-12T11:50:40;9.20;99.90
16929;DHT22;8581;47.334;11.190;2023-03-12T11:53:21;9.30;99.90
16929;DHT22;8581;47.334;11.190;2023-03-12T11:55:53;8.90;99.90
16929;DHT22;8581;47.334;11.190;2023-03-12T11:58:29;8.90;99.90
16929;DHT22;8581;47.334;11.190;2023-03-12T12:01:03;9.30;99.90
16929;DHT22;8581;47.334;11.190;2023-03-12T12:03:42;9.20;99.90
16929;DHT22;8581;47.334;11.190;2023-03-12T12:06:16;9.70;99.90
16929;DHT22;8581;47.334;11.190;2023-03-12T12:14:28;9.20;99.90
16929;DHT22;8581;47.334;11.190;2023-03-12T12:17:19;9.50;99.90
16929;DHT22;8581;47.334;11.190;2023-03-12T12:19:53;10.10;99.90
16929;DHT22;8581;47.334;11.190;2023-03-12T12:25:21;10.10;99.90
16929;DHT22;8581;47.334;11.190;2023-03-12T12:27:53;10.20;99.90
16929;DHT22;8581;47.334;11.190;2023-03-12T12:30:56;9.80;99.90
16929;DHT22;8581;47.334;11.190;2023-03-12T12:33:45;9.40;99.90
16929;DHT22;8581;47.334;11.190;2023-03-12T12:36:13;9.10;99.90
16929;DHT22;8581;47.334;11.190;2023-03-12T12:38:51;8.80;99.90
16929;DHT22;8581;47.334;11.190;2023-03-12T12:41:23;9.00;99.90
16929;DHT22;8581;47.334;11.190;2023-03-12T12:43:56;9.20;99.90
16929;DHT22;8581;47.334;11.190;2023-03-12T12:46:29;9.50;99.90
16929;DHT22;8581;47.334;11.190;2023-03-12T12:49:00;9.60;99.90
16929;DHT22;8581;47.334;11.190;2023-03-12T12:51:33;10.00;99.90
16929;DHT22;8581;47.334;11.190;2023-03-12T12:54:11;10.40;99.90
16929;DHT22;8581;47.334;11.190;2023-03-12T12:56:51;10.70;99.90
16929;DHT22;8581;47.334;11.190;2023-03-12T12:59:29;10.30;99.90
16929;DHT22;8581;47.334;11.190;2023-03-12T13:01:59;10.00;99.90
16929;DHT22;8581;47.334;11.190;2023-03-12T13:04:32;10.00;99.90
16929;DHT22;8581;47.334;11.190;2023-03-12T13:07:03;10.00;99.90
16929;DHT22;8581;47.334;11.190;2023-03-12T13:09:39;9.80;99.90
16929;DHT22;8581;47.334;11.190;2023-03-12T13:12:17;7.90;99.90
16929;DHT22;8581;47.334;11.190;2023-03-12T13:14:47;7.90;99.90
16929;DHT22;8581;47.334;11.190;2023-03-12T13:17:20;8.00;99.90
16929;DHT22;8581;47.334;11.190;2023-03-12T13:19:52;7.90;99.90
16929;DHT22;8581;47.334;11.190;2023-03-12T13:22:38;7.70;99.90
16929;DHT22;8581;47.334;11.190;2023-03-12T13:27:47;7.80;99.90
16929;DHT22;8581;47.334;11.190;2023-03-12T13:33:03;7.70;99.90
16929;DHT22;8581;47.334;11.190;2023-03-12T13:35:36;7.90;99.90
16929;DHT22;8581;47.334;11.190;2023-03-12T13:38:10;7.80;99.90
16929;DHT22;8581;47.334;11.190;2023-03-12T13:40:55;7.80;99.90
16929;DHT22;8581;47.334;11.190;2023-03-12T13:43:32;7.80;99.90
16929;DHT22;8581;47.334;11.190;2023-03-12T13:46:06;7.70;99.90
16929;DHT22;8581;47.334;11.190;2023-03-12T13:48:37;7.40;99.90
16929;DHT22;8581;47.334;11.190;2023-03-12T13:51:14;7.50;99.90
16929;DHT22;8581;47.334;11.190;2023-03-12T13:53:42;7.70;99.90
16929;DHT22;8581;47.334;11.190;2023-03-12T13:56:16;7.80;99.90
16929;DHT22;8581;47.334;11.190;2023-03-12T13:58:55;8.10;99.90
16929;DHT22;8581;47.334;11.190;2023-03-12T14:01:27;8.40;99.90
16929;DHT22;8581;47.334;11.190;2023-03-12T14:03:59;8.80;99.90
16929;DHT22;8581;47.334;11.190;2023-03-12T14:06:29;9.70;99.90
16929;DHT22;8581;47.334;11.190;2023-03-12T14:09:07;10.90;99.90
16929;DHT22;8581;47.334;11.190;2023-03-12T14:14:39;11.70;99.90
16929;DHT22;8581;47.334;11.190;2023-03-12T14:17:15;12.10;99.90
16929;DHT22;8581;47.334;11.190;2023-03-12T14:19:47;12.40;99.90
16929;DHT22;8581;47.334;11.190;2023-03-12T14:22:17;12.50;99.90
16929;DHT22;8581;47.334;11.190;2023-03-12T14:24:52;12.20;99.90
16929;DHT22;8581;47.334;11.190;2023-03-12T14:27:25;12.60;99.90
16929;DHT22;8581;47.334;11.190;2023-03-12T14:29:57;13.60;99.90
16929;DHT22;8581;47.334;11.190;2023-03-12T14:32:28;14.20;99.90
16929;DHT22;8581;47.334;11.190;2023-03-12T14:37:41;14.10;99.90
16929;DHT22;8581;47.334;11.190;2023-03-12T14:43:18;14.60;99.90
16929;DHT22;8581;47.334;11.190;2023-03-12T14:45:49;15.10;99.90
16929;DHT22;8581;47.334;11.190;2023-03-12T14:48:22;15.70;99.90
16929;DHT22;8581;47.334;11.190;2023-03-12T14:50:54;14.20;99.90
16929;DHT22;8581;47.334;11.190;2023-03-12T14:53:25;11.60;99.90
16929;DHT22;8581;47.334;11.190;2023-03-12T14:56:13;11.30;99.90
16929;DHT22;8581;47.334;11.190;2023-03-12T14:58:44;11.00;99.90
16929;DHT22;8581;47.334;11.190;2023-03-12T15:01:23;11.10;99.90
16929;DHT22;8581;47.334;11.190;2023-03-12T15:04:00;12.20;99.90
16929;DHT22;8581;47.334;11.190;2023-03-12T15:06:34;12.70;99.90
16929;DHT22;8581;47.334;11.190;2023-03-12T15:09:05;11.00;99.90
16929;DHT22;8581;47.334;11.190;2023-03-12T15:11:36;10.80;99.90
16929;DHT22;8581;47.334;11.190;2023-03-12T15:14:11;13.10;99.90
16929;DHT22;8581;47.334;11.190;2023-03-12T15:16:40;13.70;99.90
16929;DHT22;8581;47.334;11.190;2023-03-12T15:19:12;13.40;99.90
16929;DHT22;8581;47.334;11.190;2023-03-12T15:21:43;14.60;99.90
16929;DHT22;8581;47.334;11.190;2023-03-12T15:24:14;14.10;99.90
16929;DHT22;8581;47.334;11.190;2023-03-12T15:26:46;15.40;99.90
16929;DHT22;8581;47.334;11.190;2023-03-12T15:29:26;16.10;99.90
16929;DHT22;8581;47.334;11.190;2023-03-12T15:31:57;14.80;99.90
16929;DHT22;8581;47.334;11.190;2023-03-12T15:34:34;15.20;99.90
16929;DHT22;8581;47.334;11.190;2023-03-12T15:39:49;13.20;99.90
16929;DHT22;8581;47.334;11.190;2023-03-12T15:42:21;11.20;99.90
16929;DHT22;8581;47.334;11.190;2023-03-12T15:44:53;9.60;99.90
16929;DHT22;8581;47.334;11.190;2023-03-12T15:47:25;8.70;99.90
16929;DHT22;8581;47.334;11.190;2023-03-12T15:49:58;8.10;99.90
16929;DHT22;8581;47.334;11.190;2023-03-12T15:52:32;8.40;99.90
16929;DHT22;8581;47.334;11.190;2023-03-12T15:57:55;8.70;99.90
16929;DHT22;8581;47.334;11.190;2023-03-12T16:00:30;8.70;99.90
16929;DHT22;8581;47.334;11.190;2023-03-12T16:03:02;8.70;99.90
16929;DHT22;8581;47.334;11.190;2023-03-12T16:05:34;8.10;99.90
16929;DHT22;8581;47.334;11.190;2023-03-12T16:08:21;8.00;99.90
16929;DHT22;8581;47.334;11.190;2023-03-12T16:10:52;7.50;99.90
16929;DHT22;8581;47.334;11.190;2023-03-12T16:13:26;6.90;99.90
16929;DHT22;8581;47.334;11.190;2023-03-12T16:15:56;6.90;99.90
16929;DHT22;8581;47.334;11.190;2023-03-12T16:18:28;7.80;99.90
16929;DHT22;8581;47.334;11.190;2023-03-12T16:20:59;9.50;99.90
16929;DHT22;8581;47.334;11.190;2023-03-12T16:23:31;8.80;99.90
16929;DHT22;8581;47.334;11.190;2023-03-12T16:26:03;8.30;99.90
16929;DHT22;8581;47.334;11.190;2023-03-12T16:28:34;7.80;99.90
16929;DHT22;8581;47.334;11.190;2023-03-12T16:31:10;6.90;99.90
16929;DHT22;8581;47.334;11.190;2023-03-12T16:33:41;6.20;99.90
16929;DHT22;8581;47.334;11.190;2023-03-12T16:36:13;6.40;99.90
16929;DHT22;8581;47.334;11.190;2023-03-12T16:38:45;6.00;99.90
16929;DHT22;8581;47.334;11.190;2023-03-12T16:41:16;5.70;99.90
16929;DHT22;8581;47.334;11.190;2023-03-12T16:43:48;5.40;99.90
16929;DHT22;8581;47.334;11.190;2023-03-12T16:46:20;5.40;99.90
16929;DHT22;8581;47.334;11.190;2023-03-12T16:48:51;5.60;99.90
16929;DHT22;8581;47.334;11.190;2023-03-12T16:51:23;5.60;99.90
16929;DHT22;8581;47.334;11.190;2023-03-12T16:53:55;4.70;99.90
16929;DHT22;8581;47.334;11.190;2023-03-12T16:56:27;4.70;99.90
16929;DHT22;8581;47.334;11.190;2023-03-12T16:58:59;4.40;99.90
16929;DHT22;8581;47.334;11.190;2023-03-12T17:01:30;4.50;99.90
16929;DHT22;8581;47.334;11.190;2023-03-12T17:04:02;4.60;99.90